sensor_id;sensor_type;location;lat;lon;timestamp;P1;durP1;ratioP1;P2;durP2;ratioP2
56075;SDS011;41951;49.022;12.066;2023-04-07T00:01:19;13.95;;;7.97;;
56075;SDS011;41951;49.022;12.066;2023-04-07T00:03:45;14.23;;;6.55;;
56075;SDS011;41951;49.022;12.066;2023-04-07T00:06:11;11.00;;;6.47;;
56075;SDS011;41951;49.022;12.066;2023-04-07T00:08:36;9.85;;;5.78;;
56075;SDS011;41951;49.022;12.066;2023-04-07T00:11:02;13.15;;;6.22;;
56075;SDS011;41951;49.022;12.066;2023-04-07T00:13:28;10.45;;;6.05;;
56075;SDS011;41951;49.022;12.066;2023-04-07T00:15:54;12.93;;;6.90;;
56075;SDS011;41951;49.022;12.066;2023-04-07T00:18:19;11.43;;;6.35;;
56075;SDS011;41951;49.022;12.066;2023-04-07T00:20:45;11.15;;;6.57;;
56075;SDS011;41951;49.022;12.066;2023-04-07T00:23:10;11.15;;;6.95;;
56075;SDS011;41951;49.022;12.066;2023-04-07T00:25:36;12.45;;;7.05;;
56075;SDS011;41951;49.022;12.066;2023-04-07T00:28:01;11.85;;;6.70;;
56075;SDS011;41951;49.022;12.066;2023-04-07T00:30:27;12.70;;;6.65;;
56075;SDS011;41951;49.022;12.066;2023-04-07T00:32:53;10.90;;;6.20;;
56075;SDS011;41951;49.022;12.066;2023-04-07T00:35:18;9.07;;;6.45;;
56075;SDS011;41951;49.022;12.066;2023-04-07T00:37:44;11.25;;;6.40;;
56075;SDS011;41951;49.022;12.066;2023-04-07T00:40:10;10.55;;;6.35;;
56075;SDS011;41951;49.022;12.066;2023-04-07T00:42:35;13.07;;;6.90;;
56075;SDS011;41951;49.022;12.066;2023-04-07T00:45:01;12.95;;;6.28;;
56075;SDS011;41951;49.022;12.066;2023-04-07T00:47:27;12.48;;;6.60;;
56075;SDS011;41951;49.022;12.066;2023-04-07T00:49:52;10.55;;;6.07;;
56075;SDS011;41951;49.022;12.066;2023-04-07T00:52:18;11.55;;;7.32;;
56075;SDS011;41951;49.022;12.066;2023-04-07T00:54:51;11.82;;;7.13;;
56075;SDS011;41951;49.022;12.066;2023-04-07T00:57:21;11.50;;;7.05;;
56075;SDS011;41951;49.022;12.066;2023-04-07T00:59:53;12.45;;;6.57;;
56075;SDS011;41951;49.022;12.066;2023-04-07T01:02:22;10.77;;;7.00;;
56075;SDS011;41951;49.022;12.066;2023-04-07T01:07:47;12.15;;;7.38;;
56075;SDS011;41951;49.022;12.066;2023-04-07T01:10:41;13.48;;;6.70;;
56075;SDS011;41951;49.022;12.066;2023-04-07T01:15:48;13.43;;;6.82;;
56075;SDS011;41951;49.022;12.066;2023-04-07T01:18:19;10.70;;;6.72;;
56075;SDS011;41951;49.022;12.066;2023-04-07T01:20:49;12.23;;;6.80;;
56075;SDS011;41951;49.022;12.066;2023-04-07T01:23:20;14.95;;;7.70;;
56075;SDS011;41951;49.022;12.066;2023-04-07T01:25:53;11.80;;;6.88;;
56075;SDS011;41951;49.022;12.066;2023-04-07T01:28:40;13.07;;;6.95;;
56075;SDS011;41951;49.022;12.066;2023-04-07T01:31:09;13.27;;;6.27;;
56075;SDS011;41951;49.022;12.066;2023-04-07T01:33:36;11.13;;;6.70;;
56075;SDS011;41951;49.022;12.066;2023-04-07T01:36:05;11.15;;;6.38;;
56075;SDS011;41951;49.022;12.066;2023-04-07T01:38:32;10.18;;;6.63;;
56075;SDS011;41951;49.022;12.066;2023-04-07T01:40:58;11.70;;;6.45;;
56075;SDS011;41951;49.022;12.066;2023-04-07T01:43:25;13.18;;;6.47;;
56075;SDS011;41951;49.022;12.066;2023-04-07T01:45:52;12.25;;;5.82;;
56075;SDS011;41951;49.022;12.066;2023-04-07T01:48:19;9.52;;;5.90;;
56075;SDS011;41951;49.022;12.066;2023-04-07T01:50:45;13.02;;;6.80;;
56075;SDS011;41951;49.022;12.066;2023-04-07T01:53:11;9.68;;;6.07;;
56075;SDS011;41951;49.022;12.066;2023-04-07T01:55:39;12.80;;;6.75;;
56075;SDS011;41951;49.022;12.066;2023-04-07T01:58:06;12.38;;;6.63;;
56075;SDS011;41951;49.022;12.066;2023-04-07T02:00:32;9.45;;;6.30;;
56075;SDS011;41951;49.022;12.066;2023-04-07T02:03:14;11.00;;;7.05;;
56075;SDS011;41951;49.022;12.066;2023-04-07T02:05:47;11.85;;;6.85;;
56075;SDS011;41951;49.022;12.066;2023-04-07T02:08:16;13.15;;;6.97;;
56075;SDS011;41951;49.022;12.066;2023-04-07T02:10:46;14.93;;;8.07;;
56075;SDS011;41951;49.022;12.066;2023-04-07T02:13:15;11.18;;;6.97;;
56075;SDS011;41951;49.022;12.066;2023-04-07T02:18:11;11.15;;;6.25;;
56075;SDS011;41951;49.022;12.066;2023-04-07T02:20:38;12.65;;;7.15;;
56075;SDS011;41951;49.022;12.066;2023-04-07T02:23:09;11.00;;;6.80;;
56075;SDS011;41951;49.022;12.066;2023-04-07T02:25:35;11.52;;;7.03;;
56075;SDS011;41951;49.022;12.066;2023-04-07T02:28:03;11.20;;;6.85;;
56075;SDS011;41951;49.022;12.066;2023-04-07T02:30:32;11.55;;;7.03;;
56075;SDS011;41951;49.022;12.066;2023-04-07T02:32:58;11.00;;;6.22;;
56075;SDS011;41951;49.022;12.066;2023-04-07T02:35:24;17.00;;;7.60;;
56075;SDS011;41951;49.022;12.066;2023-04-07T02:37:50;11.15;;;6.63;;
56075;SDS011;41951;49.022;12.066;2023-04-07T02:40:15;13.52;;;7.82;;
56075;SDS011;41951;49.022;12.066;2023-04-07T02:42:41;11.65;;;7.28;;
56075;SDS011;41951;49.022;12.066;2023-04-07T02:45:08;14.05;;;7.55;;
56075;SDS011;41951;49.022;12.066;2023-04-07T02:47:34;11.02;;;7.15;;
56075;SDS011;41951;49.022;12.066;2023-04-07T02:50:00;12.25;;;7.43;;
56075;SDS011;41951;49.022;12.066;2023-04-07T02:52:26;14.25;;;8.25;;
56075;SDS011;41951;49.022;12.066;2023-04-07T02:54:52;12.13;;;7.40;;
56075;SDS011;41951;49.022;12.066;2023-04-07T02:57:17;11.18;;;6.82;;
56075;SDS011;41951;49.022;12.066;2023-04-07T02:59:43;13.52;;;7.60;;
56075;SDS011;41951;49.022;12.066;2023-04-07T03:02:09;12.45;;;7.07;;
56075;SDS011;41951;49.022;12.066;2023-04-07T03:04:35;12.88;;;7.20;;
56075;SDS011;41951;49.022;12.066;2023-04-07T03:07:00;12.13;;;7.13;;
56075;SDS011;41951;49.022;12.066;2023-04-07T03:09:26;9.35;;;6.43;;
56075;SDS011;41951;49.022;12.066;2023-04-07T03:11:52;12.75;;;7.15;;
56075;SDS011;41951;49.022;12.066;2023-04-07T03:14:18;13.38;;;6.90;;
56075;SDS011;41951;49.022;12.066;2023-04-07T03:16:43;13.60;;;7.70;;
56075;SDS011;41951;49.022;12.066;2023-04-07T03:19:09;12.60;;;7.22;;
56075;SDS011;41951;49.022;12.066;2023-04-07T03:21:36;10.30;;;6.80;;
56075;SDS011;41951;49.022;12.066;2023-04-07T03:24:02;10.48;;;7.15;;
56075;SDS011;41951;49.022;12.066;2023-04-07T03:26:28;11.52;;;6.65;;
56075;SDS011;41951;49.022;12.066;2023-04-07T03:28:54;10.20;;;6.65;;
56075;SDS011;41951;49.022;12.066;2023-04-07T03:31:20;13.45;;;7.55;;
56075;SDS011;41951;49.022;12.066;2023-04-07T03:33:46;11.50;;;7.28;;
56075;SDS011;41951;49.022;12.066;2023-04-07T03:36:13;14.15;;;7.13;;
56075;SDS011;41951;49.022;12.066;2023-04-07T03:38:38;14.93;;;7.45;;
56075;SDS011;41951;49.022;12.066;2023-04-07T03:41:04;13.38;;;7.53;;
56075;SDS011;41951;49.022;12.066;2023-04-07T03:43:29;14.15;;;8.32;;
56075;SDS011;41951;49.022;12.066;2023-04-07T03:45:56;14.35;;;7.43;;
56075;SDS011;41951;49.022;12.066;2023-04-07T03:48:21;16.55;;;7.90;;
56075;SDS011;41951;49.022;12.066;2023-04-07T03:50:47;13.05;;;7.93;;
56075;SDS011;41951;49.022;12.066;2023-04-07T03:53:13;12.95;;;7.82;;
56075;SDS011;41951;49.022;12.066;2023-04-07T03:55:40;13.85;;;8.07;;
56075;SDS011;41951;49.022;12.066;2023-04-07T03:58:06;13.68;;;7.35;;
56075;SDS011;41951;49.022;12.066;2023-04-07T04:00:32;13.30;;;7.53;;
56075;SDS011;41951;49.022;12.066;2023-04-07T04:02:58;15.57;;;8.30;;
56075;SDS011;41951;49.022;12.066;2023-04-07T04:05:25;13.77;;;7.80;;
56075;SDS011;41951;49.022;12.066;2023-04-07T04:07:51;12.30;;;7.65;;
56075;SDS011;41951;49.022;12.066;2023-04-07T04:10:17;13.95;;;7.85;;
56075;SDS011;41951;49.022;12.066;2023-04-07T04:12:43;13.73;;;7.95;;
56075;SDS011;41951;49.022;12.066;2023-04-07T04:15:11;15.05;;;7.97;;
56075;SDS011;41951;49.022;12.066;2023-04-07T04:17:36;16.52;;;8.80;;
56075;SDS011;41951;49.022;12.066;2023-04-07T04:20:02;14.68;;;6.97;;
56075;SDS011;41951;49.022;12.066;2023-04-07T04:22:28;32.35;;;8.82;;
56075;SDS011;41951;49.022;12.066;2023-04-07T04:24:53;14.68;;;8.02;;
56075;SDS011;41951;49.022;12.066;2023-04-07T04:27:19;13.57;;;8.93;;
56075;SDS011;41951;49.022;12.066;2023-04-07T04:29:45;16.58;;;8.57;;
56075;SDS011;41951;49.022;12.066;2023-04-07T04:32:11;14.18;;;7.60;;
56075;SDS011;41951;49.022;12.066;2023-04-07T04:34:37;12.32;;;7.63;;
56075;SDS011;41951;49.022;12.066;2023-04-07T04:37:03;13.75;;;8.07;;
56075;SDS011;41951;49.022;12.066;2023-04-07T04:39:28;15.18;;;8.93;;
56075;SDS011;41951;49.022;12.066;2023-04-07T04:41:54;14.60;;;7.95;;
56075;SDS011;41951;49.022;12.066;2023-04-07T04:44:20;17.40;;;7.38;;
56075;SDS011;41951;49.022;12.066;2023-04-07T04:46:46;13.02;;;7.53;;
56075;SDS011;41951;49.022;12.066;2023-04-07T04:49:12;10.98;;;7.10;;
56075;SDS011;41951;49.022;12.066;2023-04-07T04:51:38;15.52;;;9.60;;
56075;SDS011;41951;49.022;12.066;2023-04-07T04:54:04;13.95;;;7.38;;
56075;SDS011;41951;49.022;12.066;2023-04-07T04:56:30;12.82;;;7.65;;
56075;SDS011;41951;49.022;12.066;2023-04-07T04:58:56;13.38;;;7.72;;
56075;SDS011;41951;49.022;12.066;2023-04-07T05:01:21;16.48;;;7.43;;
56075;SDS011;41951;49.022;12.066;2023-04-07T05:03:47;14.65;;;8.35;;
56075;SDS011;41951;49.022;12.066;2023-04-07T05:06:13;13.90;;;8.10;;
56075;SDS011;41951;49.022;12.066;2023-04-07T05:08:38;14.70;;;8.48;;
56075;SDS011;41951;49.022;12.066;2023-04-07T05:11:04;13.50;;;7.50;;
56075;SDS011;41951;49.022;12.066;2023-04-07T05:13:30;15.35;;;7.88;;
56075;SDS011;41951;49.022;12.066;2023-04-07T05:15:55;14.75;;;8.63;;
56075;SDS011;41951;49.022;12.066;2023-04-07T05:18:21;15.20;;;8.00;;
56075;SDS011;41951;49.022;12.066;2023-04-07T05:20:47;13.52;;;8.20;;
56075;SDS011;41951;49.022;12.066;2023-04-07T05:23:13;12.27;;;7.63;;
56075;SDS011;41951;49.022;12.066;2023-04-07T05:25:39;14.93;;;8.60;;
56075;SDS011;41951;49.022;12.066;2023-04-07T05:28:05;12.82;;;7.80;;
56075;SDS011;41951;49.022;12.066;2023-04-07T05:30:31;18.70;;;8.57;;
56075;SDS011;41951;49.022;12.066;2023-04-07T05:32:56;16.65;;;7.85;;
56075;SDS011;41951;49.022;12.066;2023-04-07T05:35:22;12.88;;;8.15;;
56075;SDS011;41951;49.022;12.066;2023-04-07T05:37:48;12.98;;;8.23;;
56075;SDS011;41951;49.022;12.066;2023-04-07T05:40:13;11.50;;;7.50;;
56075;SDS011;41951;49.022;12.066;2023-04-07T05:42:39;13.05;;;7.32;;
56075;SDS011;41951;49.022;12.066;2023-04-07T05:45:05;10.93;;;7.32;;
56075;SDS011;41951;49.022;12.066;2023-04-07T05:47:31;15.27;;;8.38;;
56075;SDS011;41951;49.022;12.066;2023-04-07T05:49:57;12.90;;;7.78;;
56075;SDS011;41951;49.022;12.066;2023-04-07T05:52:22;13.55;;;8.40;;
56075;SDS011;41951;49.022;12.066;2023-04-07T05:54:48;13.95;;;8.13;;
56075;SDS011;41951;49.022;12.066;2023-04-07T05:57:14;14.10;;;7.75;;
56075;SDS011;41951;49.022;12.066;2023-04-07T05:59:39;15.13;;;7.82;;
56075;SDS011;41951;49.022;12.066;2023-04-07T06:02:05;14.02;;;8.10;;
56075;SDS011;41951;49.022;12.066;2023-04-07T06:04:31;13.02;;;8.20;;
56075;SDS011;41951;49.022;12.066;2023-04-07T06:06:59;15.35;;;8.70;;
56075;SDS011;41951;49.022;12.066;2023-04-07T06:09:28;15.98;;;7.95;;
56075;SDS011;41951;49.022;12.066;2023-04-07T06:11:53;12.38;;;8.18;;
56075;SDS011;41951;49.022;12.066;2023-04-07T06:14:20;14.73;;;8.82;;
56075;SDS011;41951;49.022;12.066;2023-04-07T06:16:46;14.20;;;8.40;;
56075;SDS011;41951;49.022;12.066;2023-04-07T06:19:11;14.30;;;9.00;;
56075;SDS011;41951;49.022;12.066;2023-04-07T06:21:37;16.65;;;8.93;;
56075;SDS011;41951;49.022;12.066;2023-04-07T06:24:03;16.23;;;8.95;;
56075;SDS011;41951;49.022;12.066;2023-04-07T06:26:30;12.70;;;8.18;;
56075;SDS011;41951;49.022;12.066;2023-04-07T06:28:56;13.75;;;7.82;;
56075;SDS011;41951;49.022;12.066;2023-04-07T06:31:23;11.55;;;7.50;;
56075;SDS011;41951;49.022;12.066;2023-04-07T06:33:49;14.70;;;9.07;;
56075;SDS011;41951;49.022;12.066;2023-04-07T06:36:15;18.40;;;10.90;;
56075;SDS011;41951;49.022;12.066;2023-04-07T06:38:41;17.60;;;9.07;;
56075;SDS011;41951;49.022;12.066;2023-04-07T06:41:07;13.07;;;7.60;;
56075;SDS011;41951;49.022;12.066;2023-04-07T06:43:40;12.68;;;7.70;;
56075;SDS011;41951;49.022;12.066;2023-04-07T06:46:06;13.93;;;7.80;;
56075;SDS011;41951;49.022;12.066;2023-04-07T06:48:32;13.05;;;8.10;;
56075;SDS011;41951;49.022;12.066;2023-04-07T06:50:57;12.05;;;7.68;;
56075;SDS011;41951;49.022;12.066;2023-04-07T06:53:23;12.55;;;8.05;;
56075;SDS011;41951;49.022;12.066;2023-04-07T06:55:48;14.07;;;8.63;;
56075;SDS011;41951;49.022;12.066;2023-04-07T06:58:14;12.13;;;8.20;;
56075;SDS011;41951;49.022;12.066;2023-04-07T07:00:40;16.20;;;8.95;;
56075;SDS011;41951;49.022;12.066;2023-04-07T07:03:05;13.52;;;8.55;;
56075;SDS011;41951;49.022;12.066;2023-04-07T07:05:31;12.38;;;7.90;;
56075;SDS011;41951;49.022;12.066;2023-04-07T07:07:56;15.73;;;8.77;;
56075;SDS011;41951;49.022;12.066;2023-04-07T07:10:22;13.70;;;8.55;;
56075;SDS011;41951;49.022;12.066;2023-04-07T07:12:48;12.13;;;7.80;;
56075;SDS011;41951;49.022;12.066;2023-04-07T07:15:14;14.77;;;8.23;;
56075;SDS011;41951;49.022;12.066;2023-04-07T07:17:40;13.40;;;7.95;;
56075;SDS011;41951;49.022;12.066;2023-04-07T07:20:06;13.27;;;7.70;;
56075;SDS011;41951;49.022;12.066;2023-04-07T07:22:32;12.15;;;8.48;;
56075;SDS011;41951;49.022;12.066;2023-04-07T07:24:57;13.88;;;8.43;;
56075;SDS011;41951;49.022;12.066;2023-04-07T07:27:23;12.50;;;7.93;;
56075;SDS011;41951;49.022;12.066;2023-04-07T07:29:48;13.48;;;8.63;;
56075;SDS011;41951;49.022;12.066;2023-04-07T07:32:14;13.82;;;8.98;;
56075;SDS011;41951;49.022;12.066;2023-04-07T07:34:39;10.93;;;7.70;;
56075;SDS011;41951;49.022;12.066;2023-04-07T07:37:05;15.35;;;8.27;;
56075;SDS011;41951;49.022;12.066;2023-04-07T07:39:31;11.73;;;8.23;;
56075;SDS011;41951;49.022;12.066;2023-04-07T07:41:56;13.25;;;8.25;;
56075;SDS011;41951;49.022;12.066;2023-04-07T07:44:22;13.32;;;8.32;;
56075;SDS011;41951;49.022;12.066;2023-04-07T07:46:48;13.45;;;8.90;;
56075;SDS011;41951;49.022;12.066;2023-04-07T07:49:14;13.57;;;8.38;;
56075;SDS011;41951;49.022;12.066;2023-04-07T07:51:40;13.93;;;8.57;;
56075;SDS011;41951;49.022;12.066;2023-04-07T07:54:06;15.52;;;8.93;;
56075;SDS011;41951;49.022;12.066;2023-04-07T07:56:33;16.70;;;8.98;;
56075;SDS011;41951;49.022;12.066;2023-04-07T07:58:59;16.50;;;9.23;;
56075;SDS011;41951;49.022;12.066;2023-04-07T08:01:25;11.88;;;7.70;;
56075;SDS011;41951;49.022;12.066;2023-04-07T08:03:51;12.43;;;8.35;;
56075;SDS011;41951;49.022;12.066;2023-04-07T08:06:16;10.23;;;7.65;;
56075;SDS011;41951;49.022;12.066;2023-04-07T08:08:42;15.13;;;9.45;;
56075;SDS011;41951;49.022;12.066;2023-04-07T08:11:08;14.88;;;8.07;;
56075;SDS011;41951;49.022;12.066;2023-04-07T08:13:34;13.35;;;8.48;;
56075;SDS011;41951;49.022;12.066;2023-04-07T08:15:59;13.15;;;8.73;;
56075;SDS011;41951;49.022;12.066;2023-04-07T08:18:25;14.45;;;8.60;;
56075;SDS011;41951;49.022;12.066;2023-04-07T08:20:51;14.60;;;8.48;;
56075;SDS011;41951;49.022;12.066;2023-04-07T08:23:17;14.00;;;8.20;;
56075;SDS011;41951;49.022;12.066;2023-04-07T08:25:43;12.93;;;8.45;;
56075;SDS011;41951;49.022;12.066;2023-04-07T08:28:08;13.95;;;8.60;;
56075;SDS011;41951;49.022;12.066;2023-04-07T08:30:34;13.05;;;8.82;;
56075;SDS011;41951;49.022;12.066;2023-04-07T08:33:02;14.18;;;8.25;;
56075;SDS011;41951;49.022;12.066;2023-04-07T08:35:29;16.15;;;9.52;;
56075;SDS011;41951;49.022;12.066;2023-04-07T08:37:55;13.98;;;8.27;;
56075;SDS011;41951;49.022;12.066;2023-04-07T08:40:20;13.70;;;8.18;;
56075;SDS011;41951;49.022;12.066;2023-04-07T08:42:46;16.67;;;9.23;;
56075;SDS011;41951;49.022;12.066;2023-04-07T08:45:13;15.57;;;9.18;;
56075;SDS011;41951;49.022;12.066;2023-04-07T08:47:41;13.10;;;8.48;;
56075;SDS011;41951;49.022;12.066;2023-04-07T08:50:08;12.88;;;8.55;;
56075;SDS011;41951;49.022;12.066;2023-04-07T08:52:45;16.55;;;9.95;;
56075;SDS011;41951;49.022;12.066;2023-04-07T08:55:20;14.05;;;8.40;;
56075;SDS011;41951;49.022;12.066;2023-04-07T08:57:47;12.05;;;8.32;;
56075;SDS011;41951;49.022;12.066;2023-04-07T09:00:13;12.90;;;9.38;;
56075;SDS011;41951;49.022;12.066;2023-04-07T09:02:40;14.40;;;8.60;;
56075;SDS011;41951;49.022;12.066;2023-04-07T09:05:09;15.17;;;8.90;;
56075;SDS011;41951;49.022;12.066;2023-04-07T09:07:36;14.60;;;9.30;;
56075;SDS011;41951;49.022;12.066;2023-04-07T09:10:04;12.50;;;8.38;;
56075;SDS011;41951;49.022;12.066;2023-04-07T09:12:31;16.10;;;8.70;;
56075;SDS011;41951;49.022;12.066;2023-04-07T09:14:57;16.05;;;8.95;;
56075;SDS011;41951;49.022;12.066;2023-04-07T09:17:24;17.35;;;9.82;;
56075;SDS011;41951;49.022;12.066;2023-04-07T09:19:51;14.05;;;9.18;;
56075;SDS011;41951;49.022;12.066;2023-04-07T09:25:14;14.80;;;9.10;;
56075;SDS011;41951;49.022;12.066;2023-04-07T09:27:59;14.05;;;9.02;;
56075;SDS011;41951;49.022;12.066;2023-04-07T09:30:25;14.88;;;9.98;;
56075;SDS011;41951;49.022;12.066;2023-04-07T09:32:51;15.02;;;9.25;;
56075;SDS011;41951;49.022;12.066;2023-04-07T09:35:17;14.80;;;10.02;;
56075;SDS011;41951;49.022;12.066;2023-04-07T09:37:42;17.25;;;11.68;;
56075;SDS011;41951;49.022;12.066;2023-04-07T09:40:09;14.52;;;10.02;;
56075;SDS011;41951;49.022;12.066;2023-04-07T09:42:43;16.02;;;10.57;;
56075;SDS011;41951;49.022;12.066;2023-04-07T09:45:09;18.63;;;12.70;;
56075;SDS011;41951;49.022;12.066;2023-04-07T09:47:36;15.15;;;9.90;;
56075;SDS011;41951;49.022;12.066;2023-04-07T09:50:02;14.45;;;9.52;;
56075;SDS011;41951;49.022;12.066;2023-04-07T09:55:16;17.23;;;10.18;;
56075;SDS011;41951;49.022;12.066;2023-04-07T09:57:47;14.10;;;9.88;;
56075;SDS011;41951;49.022;12.066;2023-04-07T10:00:16;15.10;;;8.88;;
56075;SDS011;41951;49.022;12.066;2023-04-07T10:02:42;14.30;;;9.75;;
56075;SDS011;41951;49.022;12.066;2023-04-07T10:05:08;15.15;;;9.50;;
56075;SDS011;41951;49.022;12.066;2023-04-07T10:07:36;13.70;;;9.40;;
56075;SDS011;41951;49.022;12.066;2023-04-07T10:10:02;15.60;;;9.57;;
56075;SDS011;41951;49.022;12.066;2023-04-07T10:12:28;16.15;;;9.43;;
56075;SDS011;41951;49.022;12.066;2023-04-07T10:14:56;15.90;;;9.90;;
56075;SDS011;41951;49.022;12.066;2023-04-07T10:17:22;16.75;;;9.98;;
56075;SDS011;41951;49.022;12.066;2023-04-07T10:19:48;18.90;;;10.32;;
56075;SDS011;41951;49.022;12.066;2023-04-07T10:22:15;16.80;;;10.27;;
56075;SDS011;41951;49.022;12.066;2023-04-07T10:24:45;16.65;;;10.85;;
56075;SDS011;41951;49.022;12.066;2023-04-07T10:27:47;14.70;;;9.63;;
56075;SDS011;41951;49.022;12.066;2023-04-07T10:30:17;18.23;;;10.27;;
56075;SDS011;41951;49.022;12.066;2023-04-07T10:32:53;17.70;;;10.35;;
56075;SDS011;41951;49.022;12.066;2023-04-07T10:35:19;16.25;;;10.48;;
56075;SDS011;41951;49.022;12.066;2023-04-07T10:40:35;15.95;;;9.63;;
56075;SDS011;41951;49.022;12.066;2023-04-07T10:43:01;15.60;;;10.18;;
56075;SDS011;41951;49.022;12.066;2023-04-07T10:48:16;14.38;;;9.90;;
56075;SDS011;41951;49.022;12.066;2023-04-07T10:50:47;17.15;;;10.70;;
56075;SDS011;41951;49.022;12.066;2023-04-07T10:53:32;13.95;;;9.57;;
56075;SDS011;41951;49.022;12.066;2023-04-07T10:55:58;13.50;;;9.65;;
56075;SDS011;41951;49.022;12.066;2023-04-07T10:58:25;14.38;;;9.70;;
56075;SDS011;41951;49.022;12.066;2023-04-07T11:03:39;15.90;;;8.85;;
56075;SDS011;41951;49.022;12.066;2023-04-07T11:06:09;15.02;;;9.88;;
56075;SDS011;41951;49.022;12.066;2023-04-07T11:08:40;15.60;;;9.68;;
56075;SDS011;41951;49.022;12.066;2023-04-07T11:11:08;12.07;;;9.05;;
56075;SDS011;41951;49.022;12.066;2023-04-07T11:13:45;14.18;;;9.30;;
56075;SDS011;41951;49.022;12.066;2023-04-07T11:16:14;14.70;;;9.55;;
56075;SDS011;41951;49.022;12.066;2023-04-07T11:18:41;15.35;;;9.48;;
56075;SDS011;41951;49.022;12.066;2023-04-07T11:21:08;16.33;;;9.43;;
56075;SDS011;41951;49.022;12.066;2023-04-07T11:23:37;15.02;;;9.38;;
56075;SDS011;41951;49.022;12.066;2023-04-07T11:26:03;15.93;;;9.23;;
56075;SDS011;41951;49.022;12.066;2023-04-07T11:28:29;15.15;;;9.65;;
56075;SDS011;41951;49.022;12.066;2023-04-07T11:30:55;13.95;;;8.90;;
56075;SDS011;41951;49.022;12.066;2023-04-07T11:33:26;13.80;;;8.88;;
56075;SDS011;41951;49.022;12.066;2023-04-07T11:35:54;13.30;;;9.10;;
56075;SDS011;41951;49.022;12.066;2023-04-07T11:38:25;14.40;;;9.93;;
56075;SDS011;41951;49.022;12.066;2023-04-07T11:40:52;15.65;;;9.80;;
56075;SDS011;41951;49.022;12.066;2023-04-07T11:43:23;13.60;;;9.57;;
56075;SDS011;41951;49.022;12.066;2023-04-07T11:46:02;13.32;;;8.77;;
56075;SDS011;41951;49.022;12.066;2023-04-07T11:48:31;13.90;;;8.35;;
56075;SDS011;41951;49.022;12.066;2023-04-07T11:50:58;15.48;;;9.10;;
56075;SDS011;41951;49.022;12.066;2023-04-07T11:56:04;11.85;;;8.57;;
56075;SDS011;41951;49.022;12.066;2023-04-07T11:58:31;14.60;;;8.63;;
56075;SDS011;41951;49.022;12.066;2023-04-07T12:00:57;13.88;;;9.40;;
56075;SDS011;41951;49.022;12.066;2023-04-07T12:03:27;12.43;;;9.25;;
56075;SDS011;41951;49.022;12.066;2023-04-07T12:05:53;14.00;;;9.88;;
56075;SDS011;41951;49.022;12.066;2023-04-07T12:08:19;15.05;;;9.45;;
56075;SDS011;41951;49.022;12.066;2023-04-07T12:10:45;12.52;;;8.50;;
56075;SDS011;41951;49.022;12.066;2023-04-07T12:13:11;15.02;;;10.30;;
56075;SDS011;41951;49.022;12.066;2023-04-07T12:15:37;13.05;;;9.60;;
56075;SDS011;41951;49.022;12.066;2023-04-07T12:18:03;18.45;;;10.65;;
56075;SDS011;41951;49.022;12.066;2023-04-07T12:20:29;16.80;;;10.05;;
56075;SDS011;41951;49.022;12.066;2023-04-07T12:22:55;18.58;;;9.98;;
56075;SDS011;41951;49.022;12.066;2023-04-07T12:25:21;17.95;;;10.63;;
56075;SDS011;41951;49.022;12.066;2023-04-07T12:27:46;14.30;;;9.75;;
56075;SDS011;41951;49.022;12.066;2023-04-07T12:30:12;15.25;;;9.60;;
56075;SDS011;41951;49.022;12.066;2023-04-07T12:32:38;15.88;;;9.88;;
56075;SDS011;41951;49.022;12.066;2023-04-07T12:35:07;14.80;;;9.55;;
56075;SDS011;41951;49.022;12.066;2023-04-07T12:37:32;14.15;;;9.77;;
56075;SDS011;41951;49.022;12.066;2023-04-07T12:39:58;13.80;;;9.05;;
56075;SDS011;41951;49.022;12.066;2023-04-07T12:42:24;16.52;;;11.05;;
56075;SDS011;41951;49.022;12.066;2023-04-07T12:44:50;16.45;;;10.68;;
56075;SDS011;41951;49.022;12.066;2023-04-07T12:47:15;13.95;;;9.48;;
56075;SDS011;41951;49.022;12.066;2023-04-07T12:49:41;13.40;;;9.07;;
56075;SDS011;41951;49.022;12.066;2023-04-07T12:52:07;14.15;;;9.73;;
56075;SDS011;41951;49.022;12.066;2023-04-07T12:54:32;14.20;;;9.75;;
56075;SDS011;41951;49.022;12.066;2023-04-07T12:56:58;14.68;;;10.13;;
56075;SDS011;41951;49.022;12.066;2023-04-07T12:59:24;15.82;;;9.10;;
56075;SDS011;41951;49.022;12.066;2023-04-07T13:01:49;12.65;;;8.57;;
56075;SDS011;41951;49.022;12.066;2023-04-07T13:04:15;13.88;;;8.98;;
56075;SDS011;41951;49.022;12.066;2023-04-07T13:06:41;12.38;;;8.27;;
56075;SDS011;41951;49.022;12.066;2023-04-07T13:09:07;11.98;;;8.93;;
56075;SDS011;41951;49.022;12.066;2023-04-07T13:11:33;15.18;;;9.10;;
56075;SDS011;41951;49.022;12.066;2023-04-07T13:14:00;15.60;;;9.35;;
56075;SDS011;41951;49.022;12.066;2023-04-07T13:16:25;16.85;;;8.35;;
56075;SDS011;41951;49.022;12.066;2023-04-07T13:18:51;14.10;;;9.38;;
56075;SDS011;41951;49.022;12.066;2023-04-07T13:21:17;10.95;;;7.97;;
56075;SDS011;41951;49.022;12.066;2023-04-07T13:23:43;12.07;;;8.45;;
56075;SDS011;41951;49.022;12.066;2023-04-07T13:26:08;13.85;;;8.05;;
56075;SDS011;41951;49.022;12.066;2023-04-07T13:28:34;11.90;;;8.20;;
56075;SDS011;41951;49.022;12.066;2023-04-07T13:30:59;12.02;;;8.02;;
56075;SDS011;41951;49.022;12.066;2023-04-07T13:33:25;11.77;;;7.85;;
56075;SDS011;41951;49.022;12.066;2023-04-07T13:35:50;11.85;;;8.25;;
56075;SDS011;41951;49.022;12.066;2023-04-07T13:38:16;12.70;;;8.75;;
56075;SDS011;41951;49.022;12.066;2023-04-07T13:40:41;12.40;;;8.40;;
56075;SDS011;41951;49.022;12.066;2023-04-07T13:43:08;11.60;;;8.43;;
56075;SDS011;41951;49.022;12.066;2023-04-07T13:45:36;12.27;;;7.68;;
56075;SDS011;41951;49.022;12.066;2023-04-07T13:48:01;9.90;;;6.88;;
56075;SDS011;41951;49.022;12.066;2023-04-07T13:50:27;12.68;;;8.45;;
56075;SDS011;41951;49.022;12.066;2023-04-07T13:52:53;13.15;;;7.93;;
56075;SDS011;41951;49.022;12.066;2023-04-07T13:55:18;10.75;;;7.22;;
56075;SDS011;41951;49.022;12.066;2023-04-07T13:57:44;10.50;;;7.05;;
56075;SDS011;41951;49.022;12.066;2023-04-07T14:00:10;10.75;;;7.55;;
56075;SDS011;41951;49.022;12.066;2023-04-07T14:02:36;11.07;;;7.63;;
56075;SDS011;41951;49.022;12.066;2023-04-07T14:05:02;11.05;;;6.90;;
56075;SDS011;41951;49.022;12.066;2023-04-07T14:07:28;12.27;;;7.32;;
56075;SDS011;41951;49.022;12.066;2023-04-07T14:09:53;12.55;;;7.72;;
56075;SDS011;41951;49.022;12.066;2023-04-07T14:12:19;11.45;;;7.25;;
56075;SDS011;41951;49.022;12.066;2023-04-07T14:14:46;13.18;;;7.93;;
56075;SDS011;41951;49.022;12.066;2023-04-07T14:17:14;12.50;;;8.13;;
56075;SDS011;41951;49.022;12.066;2023-04-07T14:19:40;9.52;;;6.82;;
56075;SDS011;41951;49.022;12.066;2023-04-07T14:22:06;13.40;;;8.23;;
56075;SDS011;41951;49.022;12.066;2023-04-07T14:24:31;11.20;;;7.57;;
56075;SDS011;41951;49.022;12.066;2023-04-07T14:26:57;10.93;;;6.70;;
56075;SDS011;41951;49.022;12.066;2023-04-07T14:29:22;17.63;;;7.75;;
56075;SDS011;41951;49.022;12.066;2023-04-07T14:31:48;11.02;;;7.68;;
56075;SDS011;41951;49.022;12.066;2023-04-07T14:34:15;11.82;;;7.55;;
56075;SDS011;41951;49.022;12.066;2023-04-07T14:36:41;11.52;;;7.25;;
56075;SDS011;41951;49.022;12.066;2023-04-07T14:39:16;11.18;;;6.88;;
56075;SDS011;41951;49.022;12.066;2023-04-07T14:41:42;12.00;;;7.85;;
56075;SDS011;41951;49.022;12.066;2023-04-07T14:44:11;9.00;;;6.88;;